sensor_id;sensor_type;location;lat;lon;timestamp;P1;durP1;ratioP1;P2;durP2;ratioP2
17398;SDS011;8817;48.170;8.592;2022-12-07T00:01:26;5.27;;;4.90;;
17398;SDS011;8817;48.170;8.592;2022-12-07T00:03:55;5.03;;;4.77;;
17398;SDS011;8817;48.170;8.592;2022-12-07T00:06:28;5.30;;;4.90;;
17398;SDS011;8817;48.170;8.592;2022-12-07T00:08:55;5.17;;;4.67;;
17398;SDS011;8817;48.170;8.592;2022-12-07T00:11:22;5.07;;;4.70;;
17398;SDS011;8817;48.170;8.592;2022-12-07T00:13:52;5.27;;;4.90;;
17398;SDS011;8817;48.170;8.592;2022-12-07T00:16:21;4.80;;;4.60;;
17398;SDS011;8817;48.170;8.592;2022-12-07T00:18:49;4.57;;;4.20;;
17398;SDS011;8817;48.170;8.592;2022-12-07T00:21:17;5.17;;;4.70;;
17398;SDS011;8817;48.170;8.592;2022-12-07T00:23:45;5.00;;;4.70;;
17398;SDS011;8817;48.170;8.592;2022-12-07T00:26:14;5.40;;;4.90;;
17398;SDS011;8817;48.170;8.592;2022-12-07T00:28:44;5.17;;;4.87;;
17398;SDS011;8817;48.170;8.592;2022-12-07T00:31:14;4.60;;;4.40;;
17398;SDS011;8817;48.170;8.592;2022-12-07T00:33:42;4.83;;;4.47;;
17398;SDS011;8817;48.170;8.592;2022-12-07T00:36:09;4.93;;;4.60;;
17398;SDS011;8817;48.170;8.592;2022-12-07T00:38:38;5.53;;;5.13;;
17398;SDS011;8817;48.170;8.592;2022-12-07T00:41:06;5.27;;;4.80;;
17398;SDS011;8817;48.170;8.592;2022-12-07T00:43:36;5.50;;;5.20;;
17398;SDS011;8817;48.170;8.592;2022-12-07T00:46:03;4.30;;;4.10;;
17398;SDS011;8817;48.170;8.592;2022-12-07T00:48:32;5.13;;;4.67;;
17398;SDS011;8817;48.170;8.592;2022-12-07T00:50:59;5.27;;;4.77;;
17398;SDS011;8817;48.170;8.592;2022-12-07T00:53:27;5.57;;;5.17;;
17398;SDS011;8817;48.170;8.592;2022-12-07T00:55:54;4.70;;;4.40;;
17398;SDS011;8817;48.170;8.592;2022-12-07T00:58:21;5.20;;;4.80;;
17398;SDS011;8817;48.170;8.592;2022-12-07T01:00:48;5.17;;;4.80;;
17398;SDS011;8817;48.170;8.592;2022-12-07T01:03:17;5.50;;;5.00;;
17398;SDS011;8817;48.170;8.592;2022-12-07T01:05:51;5.00;;;4.60;;
17398;SDS011;8817;48.170;8.592;2022-12-07T01:08:19;4.93;;;4.73;;
17398;SDS011;8817;48.170;8.592;2022-12-07T01:10:47;4.87;;;4.47;;
17398;SDS011;8817;48.170;8.592;2022-12-07T01:13:14;4.47;;;4.17;;
17398;SDS011;8817;48.170;8.592;2022-12-07T01:15:42;4.83;;;4.50;;
17398;SDS011;8817;48.170;8.592;2022-12-07T01:18:09;5.50;;;4.80;;
17398;SDS011;8817;48.170;8.592;2022-12-07T01:20:36;4.73;;;4.53;;
17398;SDS011;8817;48.170;8.592;2022-12-07T01:23:05;4.60;;;4.47;;
17398;SDS011;8817;48.170;8.592;2022-12-07T01:25:32;4.90;;;4.57;;
17398;SDS011;8817;48.170;8.592;2022-12-07T01:27:59;4.80;;;4.50;;
17398;SDS011;8817;48.170;8.592;2022-12-07T01:30:26;4.43;;;4.23;;
17398;SDS011;8817;48.170;8.592;2022-12-07T01:32:52;4.50;;;4.30;;
17398;SDS011;8817;48.170;8.592;2022-12-07T01:35:20;4.43;;;4.23;;
17398;SDS011;8817;48.170;8.592;2022-12-07T01:37:47;4.73;;;4.50;;
17398;SDS011;8817;48.170;8.592;2022-12-07T01:40:15;5.20;;;4.70;;
17398;SDS011;8817;48.170;8.592;2022-12-07T01:42:42;5.47;;;4.60;;
17398;SDS011;8817;48.170;8.592;2022-12-07T01:48:10;5.60;;;5.10;;
17398;SDS011;8817;48.170;8.592;2022-12-07T01:50:40;4.97;;;4.67;;
17398;SDS011;8817;48.170;8.592;2022-12-07T01:53:08;5.43;;;5.03;;
17398;SDS011;8817;48.170;8.592;2022-12-07T01:55:38;5.87;;;4.80;;
17398;SDS011;8817;48.170;8.592;2022-12-07T01:58:09;4.50;;;4.20;;
17398;SDS011;8817;48.170;8.592;2022-12-07T02:00:37;5.60;;;5.00;;
17398;SDS011;8817;48.170;8.592;2022-12-07T02:03:05;4.93;;;4.63;;
17398;SDS011;8817;48.170;8.592;2022-12-07T02:05:36;4.90;;;4.50;;
17398;SDS011;8817;48.170;8.592;2022-12-07T02:08:06;4.70;;;4.50;;
17398;SDS011;8817;48.170;8.592;2022-12-07T02:10:34;4.63;;;4.33;;
17398;SDS011;8817;48.170;8.592;2022-12-07T02:13:04;5.07;;;4.67;;
17398;SDS011;8817;48.170;8.592;2022-12-07T02:15:37;5.00;;;4.60;;
17398;SDS011;8817;48.170;8.592;2022-12-07T02:18:25;5.30;;;4.70;;
17398;SDS011;8817;48.170;8.592;2022-12-07T02:21:02;5.37;;;4.97;;
17398;SDS011;8817;48.170;8.592;2022-12-07T02:23:40;6.23;;;5.07;;
17398;SDS011;8817;48.170;8.592;2022-12-07T02:26:25;4.70;;;4.40;;
17398;SDS011;8817;48.170;8.592;2022-12-07T02:29:17;5.53;;;5.03;;
17398;SDS011;8817;48.170;8.592;2022-12-07T02:31:55;5.10;;;4.70;;
17398;SDS011;8817;48.170;8.592;2022-12-07T02:34:29;5.13;;;4.73;;
17398;SDS011;8817;48.170;8.592;2022-12-07T02:37:03;4.60;;;4.40;;
17398;SDS011;8817;48.170;8.592;2022-12-07T02:39:39;8.70;;;4.93;;
17398;SDS011;8817;48.170;8.592;2022-12-07T02:42:09;4.70;;;4.40;;
17398;SDS011;8817;48.170;8.592;2022-12-07T02:44:42;5.27;;;4.90;;
17398;SDS011;8817;48.170;8.592;2022-12-07T02:47:12;4.90;;;4.40;;
17398;SDS011;8817;48.170;8.592;2022-12-07T02:49:43;4.50;;;4.30;;
17398;SDS011;8817;48.170;8.592;2022-12-07T02:52:11;5.33;;;4.83;;
17398;SDS011;8817;48.170;8.592;2022-12-07T02:54:38;5.00;;;4.70;;
17398;SDS011;8817;48.170;8.592;2022-12-07T02:57:08;5.87;;;4.80;;
17398;SDS011;8817;48.170;8.592;2022-12-07T02:59:52;4.77;;;4.47;;
17398;SDS011;8817;48.170;8.592;2022-12-07T03:02:30;5.47;;;5.07;;
17398;SDS011;8817;48.170;8.592;2022-12-07T03:05:07;5.53;;;5.03;;
17398;SDS011;8817;48.170;8.592;2022-12-07T03:07:49;5.77;;;4.67;;
17398;SDS011;8817;48.170;8.592;2022-12-07T03:10:22;6.13;;;5.33;;
17398;SDS011;8817;48.170;8.592;2022-12-07T03:12:59;5.10;;;4.70;;
17398;SDS011;8817;48.170;8.592;2022-12-07T03:15:33;5.20;;;4.80;;
17398;SDS011;8817;48.170;8.592;2022-12-07T03:18:06;5.13;;;4.70;;
17398;SDS011;8817;48.170;8.592;2022-12-07T03:20:35;4.87;;;4.63;;
17398;SDS011;8817;48.170;8.592;2022-12-07T03:23:04;8.27;;;4.83;;
17398;SDS011;8817;48.170;8.592;2022-12-07T03:25:34;5.67;;;5.10;;
17398;SDS011;8817;48.170;8.592;2022-12-07T03:28:05;5.03;;;4.70;;
17398;SDS011;8817;48.170;8.592;2022-12-07T03:30:35;5.00;;;4.70;;
17398;SDS011;8817;48.170;8.592;2022-12-07T03:33:06;4.80;;;4.50;;
17398;SDS011;8817;48.170;8.592;2022-12-07T03:35:37;5.00;;;4.60;;
17398;SDS011;8817;48.170;8.592;2022-12-07T03:38:08;5.10;;;4.73;;
17398;SDS011;8817;48.170;8.592;2022-12-07T03:40:40;5.20;;;4.70;;
17398;SDS011;8817;48.170;8.592;2022-12-07T03:43:14;5.63;;;5.23;;
17398;SDS011;8817;48.170;8.592;2022-12-07T03:45:45;5.80;;;5.30;;
17398;SDS011;8817;48.170;8.592;2022-12-07T03:48:25;5.50;;;5.00;;
17398;SDS011;8817;48.170;8.592;2022-12-07T03:51:00;4.77;;;4.47;;
17398;SDS011;8817;48.170;8.592;2022-12-07T03:53:33;5.37;;;4.87;;
17398;SDS011;8817;48.170;8.592;2022-12-07T03:56:05;5.67;;;5.17;;
17398;SDS011;8817;48.170;8.592;2022-12-07T03:58:34;5.47;;;4.97;;
17398;SDS011;8817;48.170;8.592;2022-12-07T04:01:03;5.03;;;4.67;;
17398;SDS011;8817;48.170;8.592;2022-12-07T04:03:30;5.30;;;4.90;;
17398;SDS011;8817;48.170;8.592;2022-12-07T04:05:57;6.03;;;5.47;;
17398;SDS011;8817;48.170;8.592;2022-12-07T04:08:25;4.60;;;4.30;;
17398;SDS011;8817;48.170;8.592;2022-12-07T04:10:52;4.83;;;4.53;;
17398;SDS011;8817;48.170;8.592;2022-12-07T04:13:18;7.93;;;5.10;;
17398;SDS011;8817;48.170;8.592;2022-12-07T04:15:45;5.17;;;4.80;;
17398;SDS011;8817;48.170;8.592;2022-12-07T04:18:13;5.30;;;4.80;;
17398;SDS011;8817;48.170;8.592;2022-12-07T04:20:40;4.80;;;4.50;;
17398;SDS011;8817;48.170;8.592;2022-12-07T04:23:07;5.80;;;5.17;;
17398;SDS011;8817;48.170;8.592;2022-12-07T04:25:34;5.20;;;4.80;;
17398;SDS011;8817;48.170;8.592;2022-12-07T04:28:01;4.50;;;4.10;;
17398;SDS011;8817;48.170;8.592;2022-12-07T04:30:28;4.83;;;4.57;;
17398;SDS011;8817;48.170;8.592;2022-12-07T04:32:55;5.67;;;5.00;;
17398;SDS011;8817;48.170;8.592;2022-12-07T04:35:23;4.77;;;4.43;;
17398;SDS011;8817;48.170;8.592;2022-12-07T04:37:50;4.93;;;4.63;;
17398;SDS011;8817;48.170;8.592;2022-12-07T04:40:17;4.97;;;4.60;;
17398;SDS011;8817;48.170;8.592;2022-12-07T04:42:44;5.50;;;4.97;;
17398;SDS011;8817;48.170;8.592;2022-12-07T04:45:11;4.97;;;4.67;;
17398;SDS011;8817;48.170;8.592;2022-12-07T04:47:37;5.17;;;4.70;;
17398;SDS011;8817;48.170;8.592;2022-12-07T04:50:05;5.10;;;4.70;;
17398;SDS011;8817;48.170;8.592;2022-12-07T04:52:34;5.33;;;4.97;;
17398;SDS011;8817;48.170;8.592;2022-12-07T04:55:01;5.33;;;5.03;;
17398;SDS011;8817;48.170;8.592;2022-12-07T04:57:27;5.73;;;5.17;;
17398;SDS011;8817;48.170;8.592;2022-12-07T04:59:54;4.80;;;4.60;;
17398;SDS011;8817;48.170;8.592;2022-12-07T05:02:21;5.47;;;5.07;;
17398;SDS011;8817;48.170;8.592;2022-12-07T05:04:48;5.77;;;5.37;;
17398;SDS011;8817;48.170;8.592;2022-12-07T05:07:15;6.07;;;5.53;;
17398;SDS011;8817;48.170;8.592;2022-12-07T05:09:43;5.50;;;5.07;;
17398;SDS011;8817;48.170;8.592;2022-12-07T05:12:10;5.70;;;5.17;;
17398;SDS011;8817;48.170;8.592;2022-12-07T05:14:37;6.07;;;5.47;;
17398;SDS011;8817;48.170;8.592;2022-12-07T05:17:04;9.67;;;6.80;;
17398;SDS011;8817;48.170;8.592;2022-12-07T05:19:30;12.63;;;7.23;;
17398;SDS011;8817;48.170;8.592;2022-12-07T05:21:57;7.27;;;6.53;;
17398;SDS011;8817;48.170;8.592;2022-12-07T05:24:24;6.90;;;6.27;;
17398;SDS011;8817;48.170;8.592;2022-12-07T05:26:52;7.17;;;6.40;;
17398;SDS011;8817;48.170;8.592;2022-12-07T05:29:19;6.87;;;6.10;;
17398;SDS011;8817;48.170;8.592;2022-12-07T05:31:46;11.10;;;7.67;;
17398;SDS011;8817;48.170;8.592;2022-12-07T05:34:13;13.77;;;8.07;;
17398;SDS011;8817;48.170;8.592;2022-12-07T05:36:40;13.30;;;8.83;;
17398;SDS011;8817;48.170;8.592;2022-12-07T05:39:07;12.40;;;8.40;;
17398;SDS011;8817;48.170;8.592;2022-12-07T05:41:36;6.97;;;6.27;;
17398;SDS011;8817;48.170;8.592;2022-12-07T05:44:21;10.67;;;7.30;;
17398;SDS011;8817;48.170;8.592;2022-12-07T05:46:48;14.40;;;9.60;;
17398;SDS011;8817;48.170;8.592;2022-12-07T05:49:15;7.93;;;6.83;;
17398;SDS011;8817;48.170;8.592;2022-12-07T05:51:42;15.17;;;7.50;;
17398;SDS011;8817;48.170;8.592;2022-12-07T05:54:09;10.20;;;8.60;;
17398;SDS011;8817;48.170;8.592;2022-12-07T05:56:36;10.37;;;8.57;;
17398;SDS011;8817;48.170;8.592;2022-12-07T05:59:03;8.57;;;7.73;;
17398;SDS011;8817;48.170;8.592;2022-12-07T06:01:49;9.13;;;7.67;;
17398;SDS011;8817;48.170;8.592;2022-12-07T06:04:17;7.87;;;7.17;;
17398;SDS011;8817;48.170;8.592;2022-12-07T06:06:44;7.23;;;6.63;;
17398;SDS011;8817;48.170;8.592;2022-12-07T06:09:11;6.93;;;6.47;;
17398;SDS011;8817;48.170;8.592;2022-12-07T06:11:38;7.57;;;6.77;;
17398;SDS011;8817;48.170;8.592;2022-12-07T06:14:22;7.20;;;6.60;;
17398;SDS011;8817;48.170;8.592;2022-12-07T06:16:51;7.57;;;6.97;;
17398;SDS011;8817;48.170;8.592;2022-12-07T06:19:17;7.13;;;6.53;;
17398;SDS011;8817;48.170;8.592;2022-12-07T06:21:44;6.93;;;6.33;;
17398;SDS011;8817;48.170;8.592;2022-12-07T06:24:12;7.47;;;6.73;;
17398;SDS011;8817;48.170;8.592;2022-12-07T06:26:40;7.63;;;6.83;;
17398;SDS011;8817;48.170;8.592;2022-12-07T06:29:07;7.63;;;6.93;;
17398;SDS011;8817;48.170;8.592;2022-12-07T06:31:34;6.73;;;6.13;;
17398;SDS011;8817;48.170;8.592;2022-12-07T06:34:04;7.73;;;6.60;;
17398;SDS011;8817;48.170;8.592;2022-12-07T06:36:32;7.27;;;6.67;;
17398;SDS011;8817;48.170;8.592;2022-12-07T06:38:59;9.47;;;6.67;;
17398;SDS011;8817;48.170;8.592;2022-12-07T06:41:27;9.00;;;6.67;;
17398;SDS011;8817;48.170;8.592;2022-12-07T06:43:54;7.27;;;6.63;;
17398;SDS011;8817;48.170;8.592;2022-12-07T06:46:21;7.20;;;6.57;;
17398;SDS011;8817;48.170;8.592;2022-12-07T06:48:48;6.83;;;6.13;;
17398;SDS011;8817;48.170;8.592;2022-12-07T06:51:16;7.93;;;6.37;;
17398;SDS011;8817;48.170;8.592;2022-12-07T06:53:43;6.80;;;6.30;;
17398;SDS011;8817;48.170;8.592;2022-12-07T06:56:11;8.60;;;6.83;;
17398;SDS011;8817;48.170;8.592;2022-12-07T06:58:38;7.50;;;6.73;;
17398;SDS011;8817;48.170;8.592;2022-12-07T07:01:08;7.57;;;6.43;;
17398;SDS011;8817;48.170;8.592;2022-12-07T07:03:35;7.23;;;6.53;;
17398;SDS011;8817;48.170;8.592;2022-12-07T07:06:02;9.33;;;6.67;;
17398;SDS011;8817;48.170;8.592;2022-12-07T07:08:31;7.07;;;6.37;;
17398;SDS011;8817;48.170;8.592;2022-12-07T07:10:58;6.97;;;6.27;;
17398;SDS011;8817;48.170;8.592;2022-12-07T07:13:24;7.87;;;6.83;;
17398;SDS011;8817;48.170;8.592;2022-12-07T07:15:51;7.57;;;6.73;;
17398;SDS011;8817;48.170;8.592;2022-12-07T07:18:18;15.27;;;6.73;;
17398;SDS011;8817;48.170;8.592;2022-12-07T07:20:45;7.67;;;6.57;;
17398;SDS011;8817;48.170;8.592;2022-12-07T07:23:12;6.67;;;6.10;;
17398;SDS011;8817;48.170;8.592;2022-12-07T07:25:41;8.07;;;6.73;;
17398;SDS011;8817;48.170;8.592;2022-12-07T07:28:08;7.57;;;6.30;;
17398;SDS011;8817;48.170;8.592;2022-12-07T07:30:34;6.13;;;5.63;;
17398;SDS011;8817;48.170;8.592;2022-12-07T07:33:02;7.43;;;6.70;;
17398;SDS011;8817;48.170;8.592;2022-12-07T07:35:30;6.10;;;5.63;;
17398;SDS011;8817;48.170;8.592;2022-12-07T07:37:59;7.30;;;6.30;;
17398;SDS011;8817;48.170;8.592;2022-12-07T07:40:26;6.80;;;6.20;;
17398;SDS011;8817;48.170;8.592;2022-12-07T07:42:55;7.90;;;7.10;;
17398;SDS011;8817;48.170;8.592;2022-12-07T07:45:23;8.93;;;6.67;;
17398;SDS011;8817;48.170;8.592;2022-12-07T07:47:51;9.00;;;7.00;;
17398;SDS011;8817;48.170;8.592;2022-12-07T07:50:18;10.63;;;6.73;;
17398;SDS011;8817;48.170;8.592;2022-12-07T07:52:46;8.23;;;7.13;;
17398;SDS011;8817;48.170;8.592;2022-12-07T07:55:13;7.50;;;6.70;;
17398;SDS011;8817;48.170;8.592;2022-12-07T07:57:40;8.63;;;6.37;;
17398;SDS011;8817;48.170;8.592;2022-12-07T08:00:10;6.43;;;5.70;;
17398;SDS011;8817;48.170;8.592;2022-12-07T08:02:38;6.93;;;5.87;;
17398;SDS011;8817;48.170;8.592;2022-12-07T08:05:06;6.03;;;5.47;;
17398;SDS011;8817;48.170;8.592;2022-12-07T08:07:33;6.13;;;5.53;;
17398;SDS011;8817;48.170;8.592;2022-12-07T08:10:00;6.03;;;5.57;;
17398;SDS011;8817;48.170;8.592;2022-12-07T08:12:27;5.93;;;5.43;;
17398;SDS011;8817;48.170;8.592;2022-12-07T08:14:54;6.87;;;6.27;;
17398;SDS011;8817;48.170;8.592;2022-12-07T08:17:22;6.97;;;5.87;;
17398;SDS011;8817;48.170;8.592;2022-12-07T08:19:49;6.27;;;5.67;;
17398;SDS011;8817;48.170;8.592;2022-12-07T08:22:16;6.83;;;6.17;;
17398;SDS011;8817;48.170;8.592;2022-12-07T08:24:43;6.47;;;5.80;;
17398;SDS011;8817;48.170;8.592;2022-12-07T08:27:10;6.90;;;6.30;;
17398;SDS011;8817;48.170;8.592;2022-12-07T08:29:37;6.73;;;6.10;;
17398;SDS011;8817;48.170;8.592;2022-12-07T08:32:04;7.57;;;6.30;;
17398;SDS011;8817;48.170;8.592;2022-12-07T08:34:32;6.43;;;5.80;;
17398;SDS011;8817;48.170;8.592;2022-12-07T08:36:59;6.60;;;6.00;;
17398;SDS011;8817;48.170;8.592;2022-12-07T08:39:27;9.53;;;5.80;;
17398;SDS011;8817;48.170;8.592;2022-12-07T08:41:54;7.47;;;6.27;;
17398;SDS011;8817;48.170;8.592;2022-12-07T08:44:21;7.80;;;6.27;;
17398;SDS011;8817;48.170;8.592;2022-12-07T08:46:48;7.23;;;6.53;;
17398;SDS011;8817;48.170;8.592;2022-12-07T08:49:19;6.43;;;5.70;;
17398;SDS011;8817;48.170;8.592;2022-12-07T08:51:50;6.60;;;5.80;;
17398;SDS011;8817;48.170;8.592;2022-12-07T08:54:17;6.63;;;5.70;;
17398;SDS011;8817;48.170;8.592;2022-12-07T08:56:46;5.77;;;5.37;;
17398;SDS011;8817;48.170;8.592;2022-12-07T08:59:16;5.73;;;5.23;;
17398;SDS011;8817;48.170;8.592;2022-12-07T09:01:45;5.70;;;5.30;;
17398;SDS011;8817;48.170;8.592;2022-12-07T09:04:12;5.23;;;4.97;;
17398;SDS011;8817;48.170;8.592;2022-12-07T09:10:04;5.77;;;5.37;;
17398;SDS011;8817;48.170;8.592;2022-12-07T09:12:32;5.73;;;5.33;;
17398;SDS011;8817;48.170;8.592;2022-12-07T09:14:59;6.50;;;6.00;;
17398;SDS011;8817;48.170;8.592;2022-12-07T09:17:26;5.97;;;5.57;;
17398;SDS011;8817;48.170;8.592;2022-12-07T09:19:53;5.53;;;5.07;;
17398;SDS011;8817;48.170;8.592;2022-12-07T09:22:20;5.33;;;5.03;;
17398;SDS011;8817;48.170;8.592;2022-12-07T09:24:47;5.97;;;5.57;;
17398;SDS011;8817;48.170;8.592;2022-12-07T09:27:15;5.57;;;5.17;;
17398;SDS011;8817;48.170;8.592;2022-12-07T09:29:42;5.43;;;5.03;;
17398;SDS011;8817;48.170;8.592;2022-12-07T09:32:09;5.70;;;5.20;;
17398;SDS011;8817;48.170;8.592;2022-12-07T09:34:36;6.03;;;5.53;;
17398;SDS011;8817;48.170;8.592;2022-12-07T09:37:03;5.40;;;5.10;;
17398;SDS011;8817;48.170;8.592;2022-12-07T09:39:31;5.67;;;5.17;;
17398;SDS011;8817;48.170;8.592;2022-12-07T09:41:58;5.70;;;5.20;;
17398;SDS011;8817;48.170;8.592;2022-12-07T09:44:30;5.80;;;5.40;;
17398;SDS011;8817;48.170;8.592;2022-12-07T09:46:56;5.40;;;5.10;;
17398;SDS011;8817;48.170;8.592;2022-12-07T09:49:25;5.97;;;5.57;;
17398;SDS011;8817;48.170;8.592;2022-12-07T09:52:00;5.90;;;5.47;;
17398;SDS011;8817;48.170;8.592;2022-12-07T09:54:28;5.37;;;5.00;;
17398;SDS011;8817;48.170;8.592;2022-12-07T09:56:56;5.77;;;5.37;;
17398;SDS011;8817;48.170;8.592;2022-12-07T09:59:24;5.93;;;5.43;;
17398;SDS011;8817;48.170;8.592;2022-12-07T10:01:53;5.53;;;5.23;;
17398;SDS011;8817;48.170;8.592;2022-12-07T10:04:21;5.23;;;4.93;;
17398;SDS011;8817;48.170;8.592;2022-12-07T10:06:50;5.63;;;5.23;;
17398;SDS011;8817;48.170;8.592;2022-12-07T10:09:18;4.60;;;4.40;;
17398;SDS011;8817;48.170;8.592;2022-12-07T10:12:03;6.37;;;5.83;;
17398;SDS011;8817;48.170;8.592;2022-12-07T10:14:33;5.60;;;5.20;;
17398;SDS011;8817;48.170;8.592;2022-12-07T10:17:05;5.57;;;5.20;;
17398;SDS011;8817;48.170;8.592;2022-12-07T10:20:04;5.43;;;5.13;;
17398;SDS011;8817;48.170;8.592;2022-12-07T10:22:41;5.03;;;4.83;;
17398;SDS011;8817;48.170;8.592;2022-12-07T10:25:22;5.13;;;4.83;;
17398;SDS011;8817;48.170;8.592;2022-12-07T10:27:59;5.30;;;5.00;;
17398;SDS011;8817;48.170;8.592;2022-12-07T10:30:28;5.83;;;5.43;;
17398;SDS011;8817;48.170;8.592;2022-12-07T10:32:58;4.60;;;4.33;;
17398;SDS011;8817;48.170;8.592;2022-12-07T10:35:26;4.70;;;4.40;;
17398;SDS011;8817;48.170;8.592;2022-12-07T10:37:55;5.03;;;4.73;;
17398;SDS011;8817;48.170;8.592;2022-12-07T10:40:26;5.10;;;4.80;;
17398;SDS011;8817;48.170;8.592;2022-12-07T10:43:02;5.20;;;4.90;;
17398;SDS011;8817;48.170;8.592;2022-12-07T10:45:31;5.63;;;5.23;;
17398;SDS011;8817;48.170;8.592;2022-12-07T10:48:02;6.03;;;5.53;;
17398;SDS011;8817;48.170;8.592;2022-12-07T10:50:56;5.33;;;5.03;;
17398;SDS011;8817;48.170;8.592;2022-12-07T10:53:33;5.83;;;5.43;;
17398;SDS011;8817;48.170;8.592;2022-12-07T10:56:14;5.23;;;4.90;;
17398;SDS011;8817;48.170;8.592;2022-12-07T10:59:10;6.77;;;5.87;;
17398;SDS011;8817;48.170;8.592;2022-12-07T11:01:54;5.77;;;5.27;;
17398;SDS011;8817;48.170;8.592;2022-12-07T11:04:29;5.63;;;5.23;;
17398;SDS011;8817;48.170;8.592;2022-12-07T11:07:04;5.77;;;5.37;;
17398;SDS011;8817;48.170;8.592;2022-12-07T11:09:44;5.60;;;5.20;;
17398;SDS011;8817;48.170;8.592;2022-12-07T11:12:20;5.27;;;4.60;;
17398;SDS011;8817;48.170;8.592;2022-12-07T11:14:58;5.20;;;4.90;;
17398;SDS011;8817;48.170;8.592;2022-12-07T11:17:32;5.23;;;4.93;;
17398;SDS011;8817;48.170;8.592;2022-12-07T11:22:51;5.20;;;4.80;;
17398;SDS011;8817;48.170;8.592;2022-12-07T11:25:27;5.00;;;4.80;;
17398;SDS011;8817;48.170;8.592;2022-12-07T11:28:04;5.50;;;5.10;;
17398;SDS011;8817;48.170;8.592;2022-12-07T11:30:47;5.00;;;4.60;;
17398;SDS011;8817;48.170;8.592;2022-12-07T11:33:22;4.83;;;4.63;;
17398;SDS011;8817;48.170;8.592;2022-12-07T11:36:00;4.63;;;4.30;;
17398;SDS011;8817;48.170;8.592;2022-12-07T11:38:37;4.63;;;4.43;;
17398;SDS011;8817;48.170;8.592;2022-12-07T11:41:08;4.93;;;4.73;;
17398;SDS011;8817;48.170;8.592;2022-12-07T11:43:42;4.80;;;4.53;;
17398;SDS011;8817;48.170;8.592;2022-12-07T11:46:18;4.70;;;4.50;;
17398;SDS011;8817;48.170;8.592;2022-12-07T11:48:50;4.67;;;4.47;;
17398;SDS011;8817;48.170;8.592;2022-12-07T11:51:22;3.90;;;3.80;;
17398;SDS011;8817;48.170;8.592;2022-12-07T11:53:52;3.73;;;3.63;;
17398;SDS011;8817;48.170;8.592;2022-12-07T11:56:23;4.27;;;4.07;;
17398;SDS011;8817;48.170;8.592;2022-12-07T11:58:54;4.53;;;4.30;;
17398;SDS011;8817;48.170;8.592;2022-12-07T12:01:32;4.30;;;4.10;;
17398;SDS011;8817;48.170;8.592;2022-12-07T12:04:10;4.47;;;4.27;;
17398;SDS011;8817;48.170;8.592;2022-12-07T12:06:51;4.30;;;4.10;;
17398;SDS011;8817;48.170;8.592;2022-12-07T12:09:19;5.33;;;4.93;;
17398;SDS011;8817;48.170;8.592;2022-12-07T12:11:56;4.47;;;4.27;;
17398;SDS011;8817;48.170;8.592;2022-12-07T12:14:46;5.30;;;4.90;;
17398;SDS011;8817;48.170;8.592;2022-12-07T12:17:30;5.53;;;5.03;;
17398;SDS011;8817;48.170;8.592;2022-12-07T12:20:20;4.60;;;4.40;;
17398;SDS011;8817;48.170;8.592;2022-12-07T12:22:55;5.43;;;5.03;;
17398;SDS011;8817;48.170;8.592;2022-12-07T12:25:28;5.53;;;5.13;;
17398;SDS011;8817;48.170;8.592;2022-12-07T12:27:58;5.90;;;5.37;;
17398;SDS011;8817;48.170;8.592;2022-12-07T12:30:33;4.63;;;4.40;;
17398;SDS011;8817;48.170;8.592;2022-12-07T12:33:05;5.63;;;5.23;;
17398;SDS011;8817;48.170;8.592;2022-12-07T12:35:40;4.70;;;4.47;;
17398;SDS011;8817;48.170;8.592;2022-12-07T12:40:58;4.93;;;4.63;;
17398;SDS011;8817;48.170;8.592;2022-12-07T12:46:37;4.93;;;4.50;;
17398;SDS011;8817;48.170;8.592;2022-12-07T12:55:13;4.43;;;4.23;;
17398;SDS011;8817;48.170;8.592;2022-12-07T12:57:46;4.63;;;4.33;;
17398;SDS011;8817;48.170;8.592;2022-12-07T13:00:17;4.60;;;4.20;;
17398;SDS011;8817;48.170;8.592;2022-12-07T13:02:49;4.60;;;4.40;;
17398;SDS011;8817;48.170;8.592;2022-12-07T13:05:18;4.53;;;4.37;;
17398;SDS011;8817;48.170;8.592;2022-12-07T13:07:49;4.90;;;4.60;;
17398;SDS011;8817;48.170;8.592;2022-12-07T13:10:42;4.50;;;4.30;;
17398;SDS011;8817;48.170;8.592;2022-12-07T13:25:04;4.90;;;4.60;;
17398;SDS011;8817;48.170;8.592;2022-12-07T13:27:36;4.73;;;4.43;;
17398;SDS011;8817;48.170;8.592;2022-12-07T13:30:09;4.57;;;4.37;;
17398;SDS011;8817;48.170;8.592;2022-12-07T13:32:42;4.50;;;4.30;;
17398;SDS011;8817;48.170;8.592;2022-12-07T13:37:59;3.80;;;3.70;;
17398;SDS011;8817;48.170;8.592;2022-12-07T13:40:29;4.40;;;4.20;;
17398;SDS011;8817;48.170;8.592;2022-12-07T13:43:00;4.50;;;4.30;;
17398;SDS011;8817;48.170;8.592;2022-12-07T13:45:29;5.13;;;4.83;;
17398;SDS011;8817;48.170;8.592;2022-12-07T13:48:18;4.53;;;4.23;;
17398;SDS011;8817;48.170;8.592;2022-12-07T13:50:53;4.47;;;4.17;;
17398;SDS011;8817;48.170;8.592;2022-12-07T13:53:20;5.27;;;4.97;;
17398;SDS011;8817;48.170;8.592;2022-12-07T13:55:48;4.40;;;4.20;;
17398;SDS011;8817;48.170;8.592;2022-12-07T13:58:16;4.70;;;4.40;;
17398;SDS011;8817;48.170;8.592;2022-12-07T14:00:43;4.90;;;4.60;;
17398;SDS011;8817;48.170;8.592;2022-12-07T14:06:17;5.77;;;4.97;;
17398;SDS011;8817;48.170;8.592;2022-12-07T14:11:44;5.17;;;4.97;;
17398;SDS011;8817;48.170;8.592;2022-12-07T14:14:15;5.33;;;4.60;;
17398;SDS011;8817;48.170;8.592;2022-12-07T14:16:45;4.50;;;4.30;;
17398;SDS011;8817;48.170;8.592;2022-12-07T14:19:40;5.03;;;4.63;;
17398;SDS011;8817;48.170;8.592;2022-12-07T14:22:09;4.53;;;4.30;;
17398;SDS011;8817;48.170;8.592;2022-12-07T14:24:57;4.77;;;4.47;;
17398;SDS011;8817;48.170;8.592;2022-12-07T14:27:30;5.13;;;4.73;;
17398;SDS011;8817;48.170;8.592;2022-12-07T14:30:00;4.93;;;4.70;;
17398;SDS011;8817;48.170;8.592;2022-12-07T14:32:27;4.97;;;4.67;;
17398;SDS011;8817;48.170;8.592;2022-12-07T14:34:56;6.77;;;5.30;;
17398;SDS011;8817;48.170;8.592;2022-12-07T14:37:25;5.77;;;4.90;;
17398;SDS011;8817;48.170;8.592;2022-12-07T14:39:53;4.97;;;4.73;;
17398;SDS011;8817;48.170;8.592;2022-12-07T14:42:20;5.23;;;4.83;;
17398;SDS011;8817;48.170;8.592;2022-12-07T14:44:50;5.37;;;4.87;;
17398;SDS011;8817;48.170;8.592;2022-12-07T14:47:18;4.97;;;4.67;;
17398;SDS011;8817;48.170;8.592;2022-12-07T14:49:45;5.50;;;4.97;;
17398;SDS011;8817;48.170;8.592;2022-12-07T14:52:13;4.93;;;4.63;;
17398;SDS011;8817;48.170;8.592;2022-12-07T14:54:43;5.47;;;5.13;;
17398;SDS011;8817;48.170;8.592;2022-12-07T14:57:10;6.03;;;5.40;;
17398;SDS011;8817;48.170;8.592;2022-12-07T14:59:37;5.73;;;5.23;;
17398;SDS011;8817;48.170;8.592;2022-12-07T15:02:04;6.10;;;5.27;;
17398;SDS011;8817;48.170;8.592;2022-12-07T15:04:33;5.33;;;4.93;;
17398;SDS011;8817;48.170;8.592;2022-12-07T15:07:01;10.93;;;6.00;;
17398;SDS011;8817;48.170;8.592;2022-12-07T15:09:30;25.23;;;9.33;;
17398;SDS011;8817;48.170;8.592;2022-12-07T15:11:57;26.20;;;9.17;;
17398;SDS011;8817;48.170;8.592;2022-12-07T15:14:23;15.20;;;7.43;;
17398;SDS011;8817;48.170;8.592;2022-12-07T15:16:50;6.23;;;5.73;;
17398;SDS011;8817;48.170;8.592;2022-12-07T15:19:18;5.27;;;4.77;;
17398;SDS011;8817;48.170;8.592;2022-12-07T15:21:49;6.67;;;5.47;;
17398;SDS011;8817;48.170;8.592;2022-12-07T15:24:16;5.37;;;4.90;;
17398;SDS011;8817;48.170;8.592;2022-12-07T15:26:43;5.20;;;4.80;;
17398;SDS011;8817;48.170;8.592;2022-12-07T15:29:10;4.80;;;4.50;;
17398;SDS011;8817;48.170;8.592;2022-12-07T15:31:39;5.00;;;4.70;;
17398;SDS011;8817;48.170;8.592;2022-12-07T15:34:06;7.07;;;5.33;;
17398;SDS011;8817;48.170;8.592;2022-12-07T15:36:33;5.70;;;5.20;;
17398;SDS011;8817;48.170;8.592;2022-12-07T15:39:02;4.40;;;4.20;;
17398;SDS011;8817;48.170;8.592;2022-12-07T15:41:29;4.57;;;4.37;;
17398;SDS011;8817;48.170;8.592;2022-12-07T15:43:56;5.00;;;4.70;;
17398;SDS011;8817;48.170;8.592;2022-12-07T15:46:41;7.80;;;6.23;;
17398;SDS011;8817;48.170;8.592;2022-12-07T15:49:09;8.53;;;7.07;;
17398;SDS011;8817;48.170;8.592;2022-12-07T15:51:38;7.63;;;6.40;;
17398;SDS011;8817;48.170;8.592;2022-12-07T15:54:07;6.63;;;5.70;;
17398;SDS011;8817;48.170;8.592;2022-12-07T15:56:38;5.10;;;4.80;;
17398;SDS011;8817;48.170;8.592;2022-12-07T15:59:04;4.70;;;4.50;;
17398;SDS011;8817;48.170;8.592;2022-12-07T16:01:31;4.10;;;4.00;;